createdAt,value
2017-12-03T00:00:37.781Z,932.31
2017-12-03T00:01:37.759Z,932.33
2017-12-03T00:02:37.752Z,932.36
2017-12-03T00:03:37.755Z,932.34
2017-12-03T00:04:37.747Z,932.37
2017-12-03T00:05:37.741Z,932.36
2017-12-03T00:06:37.729Z,932.38
2017-12-03T00:07:37.718Z,932.37
2017-12-03T00:08:37.715Z,932.44
2017-12-03T00:09:37.707Z,932.40
2017-12-03T00:10:37.710Z,932.41
2017-12-03T00:11:37.709Z,932.42
2017-12-03T00:12:37.703Z,932.43
2017-12-03T00:13:37.671Z,932.43
2017-12-03T00:14:37.665Z,932.42
2017-12-03T00:15:37.667Z,932.45
2017-12-03T00:16:37.661Z,932.48
2017-12-03T00:17:37.654Z,932.46
2017-12-03T00:18:37.643Z,932.45
2017-12-03T00:19:37.640Z,932.47
2017-12-03T00:20:37.624Z,932.53
2017-12-03T00:21:37.627Z,932.55
2017-12-03T00:22:37.621Z,932.56
2017-12-03T00:23:37.608Z,932.58
2017-12-03T00:24:37.606Z,932.62
2017-12-03T00:25:37.601Z,932.60
2017-12-03T00:26:37.594Z,932.58
2017-12-03T00:27:37.586Z,932.61
2017-12-03T00:28:37.580Z,932.63
2017-12-03T00:29:37.693Z,932.61
2017-12-03T00:30:37.566Z,932.60
2017-12-03T00:31:37.559Z,932.64
2017-12-03T00:32:37.550Z,932.62
2017-12-03T00:33:37.547Z,932.62
2017-12-03T00:34:37.539Z,932.66
2017-12-03T00:35:37.533Z,932.65
2017-12-03T00:36:37.527Z,932.71
2017-12-03T00:37:37.570Z,932.66
2017-12-03T00:38:37.513Z,932.72
2017-12-03T00:39:37.558Z,932.70
2017-12-03T00:40:37.495Z,932.68
2017-12-03T00:41:37.497Z,932.62
2017-12-03T00:42:37.513Z,932.58
2017-12-03T00:43:37.480Z,932.61
2017-12-03T00:44:37.469Z,932.62
2017-12-03T00:45:37.467Z,932.56
2017-12-03T00:46:37.459Z,932.63
2017-12-03T00:47:37.453Z,932.63
2017-12-03T00:48:37.443Z,932.64
2017-12-03T00:49:37.441Z,932.59
2017-12-03T00:50:37.435Z,932.64
2017-12-03T00:51:37.422Z,932.59
2017-12-03T00:52:37.420Z,932.66
2017-12-03T00:53:37.414Z,932.60
2017-12-03T00:54:37.407Z,932.60
2017-12-03T00:55:37.418Z,932.61
2017-12-03T00:56:37.394Z,932.55
2017-12-03T00:57:37.405Z,932.58
2017-12-03T00:58:37.399Z,932.62
2017-12-03T00:59:37.391Z,932.59
2017-12-03T01:00:37.363Z,932.62
2017-12-03T01:01:37.429Z,932.62
2017-12-03T01:02:37.356Z,932.65
2017-12-03T01:03:37.347Z,932.68
2017-12-03T01:04:37.358Z,932.65
2017-12-03T01:05:37.335Z,932.69
2017-12-03T01:06:37.324Z,932.71
2017-12-03T01:07:37.338Z,932.70
2017-12-03T01:08:37.332Z,932.66
2017-12-03T01:09:37.323Z,932.67
2017-12-03T01:10:37.320Z,932.71
2017-12-03T01:11:37.291Z,932.69
2017-12-03T01:12:37.306Z,932.71
2017-12-03T01:13:37.277Z,932.73
2017-12-03T01:14:37.293Z,932.76
2017-12-03T01:15:37.283Z,932.71
2017-12-03T01:16:37.280Z,932.74
2017-12-03T01:17:37.258Z,932.75
2017-12-03T01:18:37.246Z,932.73
2017-12-03T01:19:37.260Z,932.74
2017-12-03T01:20:37.254Z,932.69
2017-12-03T01:21:37.230Z,932.70
2017-12-03T01:22:37.238Z,932.71
2017-12-03T01:23:37.216Z,932.81
2017-12-03T01:24:37.227Z,932.78
2017-12-03T01:25:37.200Z,932.74
2017-12-03T01:26:37.212Z,932.72
2017-12-03T01:27:37.186Z,932.78
2017-12-03T01:28:37.199Z,932.75
2017-12-03T01:29:37.197Z,932.77
2017-12-03T01:30:37.186Z,932.77
2017-12-03T01:31:37.164Z,932.74
2017-12-03T01:32:37.172Z,932.70
2017-12-03T01:33:37.152Z,932.72
2017-12-03T01:34:37.162Z,932.69
2017-12-03T01:35:37.134Z,932.69
2017-12-03T01:36:37.127Z,932.68
2017-12-03T01:37:37.143Z,932.70
2017-12-03T01:38:37.119Z,932.68
2017-12-03T01:39:37.125Z,932.69
2017-12-03T01:40:37.122Z,932.68
2017-12-03T01:41:37.116Z,932.65
2017-12-03T01:42:37.087Z,932.62
2017-12-03T01:43:37.085Z,932.63
2017-12-03T01:44:37.074Z,932.65
2017-12-03T01:45:37.089Z,932.68
2017-12-03T01:46:37.083Z,932.64
2017-12-03T01:47:37.072Z,932.67
2017-12-03T01:48:37.046Z,932.67
2017-12-03T01:49:37.045Z,932.63
2017-12-03T01:50:37.052Z,932.67
2017-12-03T01:51:37.051Z,932.67
2017-12-03T01:52:37.024Z,932.65
2017-12-03T01:53:37.035Z,932.66
2017-12-03T01:54:37.031Z,932.70
2017-12-03T01:55:37.021Z,932.67
2017-12-03T01:56:37.015Z,932.70
2017-12-03T01:57:36.987Z,932.69
2017-12-03T01:58:36.998Z,932.68
2017-12-03T01:59:36.977Z,932.65
2017-12-03T02:00:36.966Z,932.64
2017-12-03T02:01:36.978Z,932.63
2017-12-03T02:02:36.956Z,932.58
2017-12-03T02:03:36.966Z,932.60
2017-12-03T02:04:36.939Z,932.57
2017-12-03T02:05:36.949Z,932.53
2017-12-03T02:06:36.926Z,932.47
2017-12-03T02:07:36.921Z,932.47
2017-12-03T02:08:36.916Z,932.45
2017-12-03T02:09:36.909Z,932.41
2017-12-03T02:10:36.899Z,932.42
2017-12-03T02:11:36.992Z,932.40
2017-12-03T02:12:36.890Z,932.42
2017-12-03T02:13:36.895Z,932.36
2017-12-03T02:14:36.877Z,932.37
2017-12-03T02:15:36.866Z,932.34
2017-12-03T02:16:36.863Z,932.32
2017-12-03T02:17:36.867Z,932.35
2017-12-03T02:18:36.850Z,932.35
2017-12-03T02:19:36.857Z,932.34
2017-12-03T02:20:36.851Z,932.38
2017-12-03T02:21:36.825Z,932.37
2017-12-03T02:22:36.838Z,932.36
2017-12-03T02:23:36.811Z,932.36
2017-12-03T02:24:36.827Z,932.32
2017-12-03T02:25:36.814Z,932.32
2017-12-03T02:26:36.811Z,932.29
2017-12-03T02:27:36.784Z,932.30
2017-12-03T02:28:36.778Z,932.33
2017-12-03T02:29:36.891Z,932.31
2017-12-03T02:30:36.765Z,932.32
2017-12-03T02:31:36.758Z,932.31
2017-12-03T02:32:36.752Z,932.24
2017-12-03T02:33:36.761Z,932.24
2017-12-03T02:34:36.738Z,932.20
2017-12-03T02:35:36.730Z,932.21
2017-12-03T02:36:36.729Z,932.19
2017-12-03T02:37:36.739Z,932.19
2017-12-03T02:38:36.712Z,932.18
2017-12-03T02:39:36.723Z,932.15
2017-12-03T02:40:36.699Z,932.19
2017-12-03T02:41:36.792Z,932.19
2017-12-03T02:42:36.706Z,932.17
2017-12-03T02:43:36.699Z,932.17
2017-12-03T02:44:36.672Z,932.12
2017-12-03T02:45:36.686Z,932.15
2017-12-03T02:46:36.677Z,932.10
2017-12-03T02:47:36.670Z,932.10
2017-12-03T02:48:36.648Z,932.06
2017-12-03T02:49:36.642Z,932.07
2017-12-03T02:50:36.653Z,932.03
2017-12-03T02:51:36.647Z,932.06
2017-12-03T02:52:36.640Z,932.01
2017-12-03T02:53:36.616Z,931.97
2017-12-03T02:54:36.607Z,931.97
2017-12-03T02:55:36.617Z,931.95
2017-12-03T02:56:36.613Z,931.95
2017-12-03T02:57:36.608Z,931.94
2017-12-03T02:58:36.601Z,931.95
2017-12-03T02:59:36.672Z,931.98
2017-12-03T03:00:36.584Z,931.97
2017-12-03T03:01:36.580Z,931.97
2017-12-03T03:02:36.571Z,931.99
2017-12-03T03:03:36.564Z,931.96
2017-12-03T03:04:36.565Z,931.95
2017-12-03T03:05:36.537Z,931.94
2017-12-03T03:06:36.531Z,931.90
2017-12-03T03:07:36.540Z,931.91
2017-12-03T03:08:36.513Z,931.87
2017-12-03T03:09:36.528Z,931.85
2017-12-03T03:10:36.521Z,931.87
2017-12-03T03:11:36.611Z,931.88
2017-12-03T03:12:36.506Z,931.90
2017-12-03T03:13:36.502Z,931.87
2017-12-03T03:14:36.489Z,931.83
2017-12-03T03:15:36.486Z,931.79
2017-12-03T03:16:36.475Z,931.73
2017-12-03T03:17:36.468Z,931.73
2017-12-03T03:18:36.462Z,931.70
2017-12-03T03:19:36.467Z,931.67
2017-12-03T03:20:36.452Z,931.68
2017-12-03T03:21:36.453Z,931.67
2017-12-03T03:22:36.442Z,931.67
2017-12-03T03:23:36.429Z,931.63
2017-12-03T03:24:36.421Z,931.64
2017-12-03T03:25:36.422Z,931.61
2017-12-03T03:26:36.411Z,931.62
2017-12-03T03:27:36.409Z,931.59
2017-12-03T03:28:36.398Z,931.62
2017-12-03T03:29:36.396Z,931.63
2017-12-03T03:30:36.384Z,931.63
2017-12-03T03:31:36.383Z,931.65
2017-12-03T03:32:36.376Z,931.61
2017-12-03T03:33:36.367Z,931.63
2017-12-03T03:34:36.362Z,931.55
2017-12-03T03:35:36.357Z,931.52
2017-12-03T03:36:36.351Z,931.51
2017-12-03T03:37:36.342Z,931.53
2017-12-03T03:38:36.336Z,931.53
2017-12-03T03:39:36.328Z,931.51
2017-12-03T03:40:36.323Z,931.50
2017-12-03T03:41:36.316Z,931.46
2017-12-03T03:42:36.355Z,931.43
2017-12-03T03:43:36.302Z,931.43
2017-12-03T03:44:36.296Z,931.40
2017-12-03T03:45:36.293Z,931.36
2017-12-03T03:46:36.288Z,931.34
2017-12-03T03:47:36.280Z,931.31
2017-12-03T03:48:36.274Z,931.29
2017-12-03T03:49:36.261Z,931.26
2017-12-03T03:50:36.259Z,931.21
2017-12-03T03:51:36.251Z,931.18
2017-12-03T03:52:36.243Z,931.16
2017-12-03T03:53:36.236Z,931.16
2017-12-03T03:54:36.229Z,931.14
2017-12-03T03:55:36.225Z,931.11
2017-12-03T03:56:36.220Z,931.08
2017-12-03T03:57:36.214Z,931.08
2017-12-03T03:58:36.203Z,931.06
2017-12-03T03:59:36.200Z,931.04
2017-12-03T04:00:36.197Z,931.05
2017-12-03T04:01:36.188Z,930.98
2017-12-03T04:02:36.185Z,930.97
2017-12-03T04:03:36.176Z,931.01
2017-12-03T04:04:36.169Z,931.00
2017-12-03T04:05:36.165Z,931.01
2017-12-03T04:06:36.157Z,930.99
2017-12-03T04:07:36.148Z,930.95
2017-12-03T04:08:36.146Z,930.97
2017-12-03T04:09:36.140Z,930.96
2017-12-03T04:10:36.133Z,930.94
2017-12-03T04:11:36.123Z,930.93
2017-12-03T04:12:36.114Z,930.91
2017-12-03T04:13:36.114Z,930.94
2017-12-03T04:14:36.106Z,930.93
2017-12-03T04:15:36.094Z,930.90
2017-12-03T04:16:36.092Z,930.92
2017-12-03T04:17:36.082Z,930.87
2017-12-03T04:18:36.082Z,930.85
2017-12-03T04:19:36.075Z,930.83
2017-12-03T04:20:36.064Z,930.82
2017-12-03T04:21:36.057Z,930.80
2017-12-03T04:22:36.055Z,930.77
2017-12-03T04:23:36.046Z,930.80
2017-12-03T04:24:36.037Z,930.82
2017-12-03T04:25:36.031Z,930.81
2017-12-03T04:26:36.019Z,930.76
2017-12-03T04:27:36.022Z,930.79
2017-12-03T04:28:36.015Z,930.76
2017-12-03T04:29:36.000Z,930.74
2017-12-03T04:30:36.003Z,930.74
2017-12-03T04:31:35.986Z,930.69
2017-12-03T04:32:35.981Z,930.64
2017-12-03T04:33:35.980Z,930.63
2017-12-03T04:34:35.977Z,930.64
2017-12-03T04:35:35.967Z,930.64
2017-12-03T04:36:35.959Z,930.63
2017-12-03T04:37:35.948Z,930.67
2017-12-03T04:38:35.942Z,930.66
2017-12-03T04:39:35.944Z,930.64
2017-12-03T04:40:35.939Z,930.60
2017-12-03T04:41:35.928Z,930.64
2017-12-03T04:42:35.922Z,930.59
2017-12-03T04:43:35.915Z,930.56
2017-12-03T04:44:35.908Z,930.58
2017-12-03T04:45:35.902Z,930.55
2017-12-03T04:46:35.895Z,930.53
2017-12-03T04:47:35.883Z,930.56
2017-12-03T04:48:35.876Z,930.60
2017-12-03T04:49:35.875Z,930.59
2017-12-03T04:50:35.864Z,930.63
2017-12-03T04:51:35.864Z,930.62
2017-12-03T04:52:35.852Z,930.61
2017-12-03T04:53:35.846Z,930.60
2017-12-03T04:54:35.844Z,930.60
2017-12-03T04:55:35.832Z,930.60
2017-12-03T04:56:35.838Z,930.59
2017-12-03T04:57:35.828Z,930.58
2017-12-03T04:58:35.811Z,930.58
2017-12-03T04:59:35.820Z,930.58
2017-12-03T05:00:35.807Z,930.54
2017-12-03T05:01:35.803Z,930.56
2017-12-03T05:02:35.788Z,930.57
2017-12-03T05:03:35.790Z,930.52
2017-12-03T05:04:35.782Z,930.54
2017-12-03T05:05:35.878Z,930.52
2017-12-03T05:06:35.771Z,930.48
2017-12-03T05:07:35.762Z,930.46
2017-12-03T05:08:35.760Z,930.43
2017-12-03T05:09:35.752Z,930.43
2017-12-03T05:10:35.740Z,930.42
2017-12-03T05:11:35.734Z,930.42
2017-12-03T05:12:35.729Z,930.42
2017-12-03T05:13:35.727Z,930.40
2017-12-03T05:14:35.719Z,930.38
2017-12-03T05:15:35.709Z,930.40
2017-12-03T05:16:35.726Z,930.41
2017-12-03T05:17:35.800Z,930.41
2017-12-03T05:18:35.684Z,930.39
2017-12-03T05:19:35.676Z,930.41
2017-12-03T05:20:35.670Z,930.40
2017-12-03T05:21:35.671Z,930.45
2017-12-03T05:22:35.665Z,930.38
2017-12-03T05:23:35.658Z,930.39
2017-12-03T05:24:35.644Z,930.36
2017-12-03T05:25:35.641Z,930.36
2017-12-03T05:26:35.639Z,930.32
2017-12-03T05:27:35.622Z,930.35
2017-12-03T05:28:35.621Z,930.34
2017-12-03T05:29:35.621Z,930.34
2017-12-03T05:30:35.613Z,930.30
2017-12-03T05:31:35.606Z,930.32
2017-12-03T05:32:35.599Z,930.31
2017-12-03T05:33:35.586Z,930.33
2017-12-03T05:34:35.589Z,930.34
2017-12-03T05:35:35.679Z,930.33
2017-12-03T05:36:35.564Z,930.36
2017-12-03T05:37:35.567Z,930.33
2017-12-03T05:38:35.553Z,930.32
2017-12-03T05:39:35.546Z,930.30
2017-12-03T05:40:35.537Z,930.30
2017-12-03T05:41:35.540Z,930.28
2017-12-03T05:42:35.534Z,930.28
2017-12-03T05:43:35.527Z,930.27
2017-12-03T05:44:35.514Z,930.29
2017-12-03T05:45:35.517Z,930.24
2017-12-03T05:46:35.501Z,930.25
2017-12-03T05:47:35.501Z,930.22
2017-12-03T05:48:35.497Z,930.23
2017-12-03T05:49:35.488Z,930.22
2017-12-03T05:50:35.477Z,930.17
2017-12-03T05:51:35.467Z,930.17
2017-12-03T05:52:35.471Z,930.18
2017-12-03T05:53:35.465Z,930.14
2017-12-03T05:54:35.456Z,930.17
2017-12-03T05:55:35.440Z,930.15
2017-12-03T05:56:35.443Z,930.09
2017-12-03T05:57:35.437Z,930.08
2017-12-03T05:58:35.425Z,930.10
2017-12-03T05:59:35.425Z,930.04
2017-12-03T06:00:35.417Z,930.04
2017-12-03T06:01:35.411Z,930.04
2017-12-03T06:02:35.406Z,930.04
2017-12-03T06:03:35.395Z,930.05
2017-12-03T06:04:35.388Z,930.02
2017-12-03T06:05:35.488Z,930.03
2017-12-03T06:06:35.383Z,930.01
2017-12-03T06:07:35.372Z,930.01
2017-12-03T06:08:35.356Z,929.99
2017-12-03T06:09:35.356Z,930.00
2017-12-03T06:10:35.355Z,930.00
2017-12-03T06:11:35.446Z,930.01
2017-12-03T06:12:35.330Z,930.03
2017-12-03T06:13:35.324Z,930.04
2017-12-03T06:14:35.327Z,930.01
2017-12-03T06:15:35.317Z,930.02
2017-12-03T06:16:35.314Z,930.03
2017-12-03T06:17:35.310Z,930.02
2017-12-03T06:18:35.299Z,930.00
2017-12-03T06:19:35.294Z,930.00
2017-12-03T06:20:35.283Z,930.01
2017-12-03T06:21:35.285Z,929.97
2017-12-03T06:22:35.282Z,929.98
2017-12-03T06:23:35.367Z,929.98
2017-12-03T06:24:35.259Z,929.97
2017-12-03T06:25:35.256Z,929.98
2017-12-03T06:26:35.252Z,930.00
2017-12-03T06:27:35.244Z,930.00
2017-12-03T06:28:35.232Z,930.00
2017-12-03T06:29:35.329Z,930.00
2017-12-03T06:30:35.226Z,930.02
2017-12-03T06:31:35.217Z,930.05
2017-12-03T06:32:35.212Z,930.04
2017-12-03T06:33:35.204Z,930.02
2017-12-03T06:34:35.198Z,930.05
2017-12-03T06:35:35.171Z,930.10
2017-12-03T06:36:35.168Z,930.06
2017-12-03T06:37:35.174Z,930.06
2017-12-03T06:38:35.172Z,930.05
2017-12-03T06:39:35.164Z,930.10
2017-12-03T06:40:35.138Z,930.07
2017-12-03T06:41:35.136Z,930.05
2017-12-03T06:42:35.126Z,930.08
2017-12-03T06:43:35.119Z,930.10
2017-12-03T06:44:35.128Z,930.12
2017-12-03T06:45:35.133Z,930.09
2017-12-03T06:46:35.105Z,930.13
2017-12-03T06:47:35.094Z,930.13
2017-12-03T06:48:35.092Z,930.15
2017-12-03T06:49:35.096Z,930.17
2017-12-03T06:50:35.079Z,930.18
2017-12-03T06:51:35.087Z,930.26
2017-12-03T06:52:35.061Z,930.21
2017-12-03T06:53:35.072Z,930.20
2017-12-03T06:54:35.052Z,930.23
2017-12-03T06:55:35.057Z,930.25
2017-12-03T06:56:35.055Z,930.25
2017-12-03T06:57:35.049Z,930.29
2017-12-03T06:58:35.023Z,930.24
2017-12-03T06:59:35.019Z,930.21
2017-12-03T07:00:35.025Z,930.27
2017-12-03T07:01:35.018Z,930.31
2017-12-03T07:02:35.001Z,930.28
2017-12-03T07:03:34.990Z,930.30
2017-12-03T07:04:35.003Z,930.29
2017-12-03T07:05:35.092Z,930.34
2017-12-03T07:06:34.986Z,930.34
2017-12-03T07:07:34.968Z,930.35
2017-12-03T07:08:34.958Z,930.36
2017-12-03T07:09:34.952Z,930.37
2017-12-03T07:10:34.948Z,930.34
2017-12-03T07:11:34.942Z,930.33
2017-12-03T07:12:34.932Z,930.34
2017-12-03T07:13:34.925Z,930.33
2017-12-03T07:14:34.919Z,930.33
2017-12-03T07:15:34.916Z,930.34
2017-12-03T07:16:34.910Z,930.33
2017-12-03T07:17:34.899Z,930.33
2017-12-03T07:18:34.897Z,930.33
2017-12-03T07:19:34.888Z,930.36
2017-12-03T07:20:34.879Z,930.37
2017-12-03T07:21:34.872Z,930.38
2017-12-03T07:22:34.871Z,930.35
2017-12-03T07:23:34.959Z,930.33
2017-12-03T07:24:34.853Z,930.37
2017-12-03T07:25:34.842Z,930.38
2017-12-03T07:26:34.841Z,930.38
2017-12-03T07:27:34.838Z,930.39
2017-12-03T07:28:34.830Z,930.37
2017-12-03T07:29:34.826Z,930.35
2017-12-03T07:30:34.819Z,930.41
2017-12-03T07:31:34.808Z,930.44
2017-12-03T07:32:34.805Z,930.42
2017-12-03T07:33:34.798Z,930.43
2017-12-03T07:34:34.783Z,930.43
2017-12-03T07:35:34.785Z,930.43
2017-12-03T07:36:34.775Z,930.44
2017-12-03T07:37:34.773Z,930.48
2017-12-03T07:38:34.757Z,930.50
2017-12-03T07:39:34.760Z,930.53
2017-12-03T07:40:34.743Z,930.54
2017-12-03T07:41:34.848Z,930.52
2017-12-03T07:42:34.736Z,930.54
2017-12-03T07:43:34.733Z,930.51
2017-12-03T07:44:34.727Z,930.57
2017-12-03T07:45:34.720Z,930.55
2017-12-03T07:46:34.705Z,930.55
2017-12-03T07:47:34.703Z,930.57
2017-12-03T07:48:34.696Z,930.57
2017-12-03T07:49:34.694Z,930.61
2017-12-03T07:50:34.688Z,930.57
2017-12-03T07:51:34.677Z,930.56
2017-12-03T07:52:34.665Z,930.52
2017-12-03T07:53:34.659Z,930.53
2017-12-03T07:54:34.654Z,930.49
2017-12-03T07:55:34.657Z,930.48
2017-12-03T07:56:34.643Z,930.49
2017-12-03T07:57:34.638Z,930.54
2017-12-03T07:58:34.636Z,930.51
2017-12-03T07:59:34.628Z,930.51
2017-12-03T08:00:34.621Z,930.49
2017-12-03T08:01:34.615Z,930.51
2017-12-03T08:02:34.608Z,930.52
2017-12-03T08:03:34.601Z,930.51
2017-12-03T08:04:34.601Z,930.53
2017-12-03T08:05:34.584Z,930.54
2017-12-03T08:06:34.578Z,930.57
2017-12-03T08:07:34.575Z,930.57
2017-12-03T08:08:34.560Z,930.62
2017-12-03T08:09:34.561Z,930.60
2017-12-03T08:10:34.556Z,930.56
2017-12-03T08:11:34.547Z,930.58
2017-12-03T08:12:34.541Z,930.55
2017-12-03T08:13:34.536Z,930.62
2017-12-03T08:14:34.529Z,930.58
2017-12-03T08:15:34.524Z,930.56
2017-12-03T08:16:34.522Z,930.59
2017-12-03T08:17:34.618Z,930.56
2017-12-03T08:18:34.514Z,930.59
2017-12-03T08:19:34.511Z,930.59
2017-12-03T08:20:34.502Z,930.57
2017-12-03T08:21:34.490Z,930.59
2017-12-03T08:22:34.488Z,930.59
2017-12-03T08:23:34.481Z,930.59
2017-12-03T08:24:34.470Z,930.59
2017-12-03T08:25:34.463Z,930.53
2017-12-03T08:26:34.462Z,930.57
2017-12-03T08:27:34.449Z,930.53
2017-12-03T08:28:34.449Z,930.56
2017-12-03T08:29:34.437Z,930.55
2017-12-03T08:30:34.431Z,930.58
2017-12-03T08:31:34.424Z,930.64
2017-12-03T08:32:34.423Z,930.65
2017-12-03T08:33:34.411Z,930.70
2017-12-03T08:34:34.404Z,930.71
2017-12-03T08:35:34.397Z,930.73
2017-12-03T08:36:34.396Z,930.73
2017-12-03T08:37:34.385Z,930.72
2017-12-03T08:38:34.379Z,930.75
2017-12-03T08:39:34.371Z,930.77
2017-12-03T08:40:34.370Z,930.77
2017-12-03T08:41:34.360Z,930.84
2017-12-03T08:42:34.387Z,930.85
2017-12-03T08:43:34.345Z,930.87
2017-12-03T08:44:34.339Z,930.86
2017-12-03T08:45:34.337Z,930.87
2017-12-03T08:46:34.326Z,930.90
2017-12-03T08:47:34.426Z,930.94
2017-12-03T08:48:34.318Z,930.98
2017-12-03T08:49:34.306Z,930.99
2017-12-03T08:50:34.301Z,930.95
2017-12-03T08:51:34.293Z,931.00
2017-12-03T08:52:34.270Z,930.97
2017-12-03T08:53:34.270Z,930.99
2017-12-03T08:54:34.274Z,930.98
2017-12-03T08:55:34.268Z,930.97
2017-12-03T08:56:34.250Z,930.98
2017-12-03T08:57:34.239Z,930.96
2017-12-03T08:58:34.248Z,930.96
2017-12-03T08:59:34.225Z,930.95
2017-12-03T09:00:34.224Z,930.98
2017-12-03T09:01:34.213Z,930.96
2017-12-03T09:02:34.233Z,930.96
2017-12-03T09:03:34.221Z,930.93
2017-12-03T09:04:34.224Z,930.95
2017-12-03T09:05:34.208Z,931.00
2017-12-03T09:06:34.186Z,930.96
2017-12-03T09:07:34.173Z,930.94
2017-12-03T09:08:34.188Z,930.94
2017-12-03T09:09:34.166Z,930.95
2017-12-03T09:10:34.172Z,930.97
2017-12-03T09:11:34.269Z,930.94
2017-12-03T09:12:34.141Z,930.95
2017-12-03T09:13:34.156Z,930.98
2017-12-03T09:14:34.128Z,930.93
2017-12-03T09:15:34.142Z,930.97
2017-12-03T09:16:34.135Z,930.92
2017-12-03T09:17:34.109Z,930.94
2017-12-03T09:18:34.103Z,930.95
2017-12-03T09:19:34.111Z,930.95
2017-12-03T09:20:34.094Z,930.93
2017-12-03T09:21:34.088Z,930.92
2017-12-03T09:22:34.077Z,930.93
2017-12-03T09:23:34.085Z,930.90
2017-12-03T09:24:34.069Z,930.90
2017-12-03T09:25:34.077Z,930.91
2017-12-03T09:26:34.057Z,930.89
2017-12-03T09:27:34.044Z,930.90
2017-12-03T09:28:34.038Z,930.92
2017-12-03T09:29:34.030Z,930.96
2017-12-03T09:30:34.031Z,930.97
2017-12-03T09:31:34.042Z,931.02
2017-12-03T09:32:34.018Z,931.05
2017-12-03T09:33:34.030Z,931.03
2017-12-03T09:34:34.018Z,931.07
2017-12-03T09:35:34.099Z,931.05
2017-12-03T09:36:34.010Z,931.00
2017-12-03T09:37:33.999Z,931.01
2017-12-03T09:38:33.980Z,931.05
2017-12-03T09:39:33.987Z,931.06
2017-12-03T09:40:33.979Z,931.07
2017-12-03T09:41:33.980Z,931.12
2017-12-03T09:42:33.968Z,931.08
2017-12-03T09:43:33.960Z,931.07
2017-12-03T09:44:33.954Z,931.10
2017-12-03T09:45:33.955Z,931.08
2017-12-03T09:46:33.942Z,931.08
2017-12-03T09:47:33.917Z,931.11
2017-12-03T09:48:33.917Z,931.08
2017-12-03T09:49:33.906Z,931.09
2017-12-03T09:50:33.901Z,931.08
2017-12-03T09:51:33.892Z,931.12
2017-12-03T09:52:33.905Z,931.10
2017-12-03T09:53:33.899Z,931.10
2017-12-03T09:54:33.874Z,931.09
2017-12-03T09:55:33.875Z,931.13
2017-12-03T09:56:33.867Z,931.17
2017-12-03T09:57:33.874Z,931.17
2017-12-03T09:58:33.856Z,931.17
2017-12-03T09:59:33.868Z,931.16
2017-12-03T10:00:33.838Z,931.18
2017-12-03T10:01:33.852Z,931.20
2017-12-03T10:02:33.847Z,931.24
2017-12-03T10:03:33.834Z,931.24
2017-12-03T10:04:33.829Z,931.27
2017-12-03T10:05:33.814Z,931.29
2017-12-03T10:06:33.808Z,931.27
2017-12-03T10:07:33.796Z,931.31
2017-12-03T10:08:33.811Z,931.32
2017-12-03T10:09:33.809Z,931.28
2017-12-03T10:10:33.805Z,931.27
2017-12-03T10:11:33.788Z,931.27
2017-12-03T10:12:33.782Z,931.25
2017-12-03T10:13:33.761Z,931.25
2017-12-03T10:14:33.783Z,931.25
2017-12-03T10:15:33.749Z,931.24
2017-12-03T10:16:33.744Z,931.28
2017-12-03T10:17:33.747Z,931.28
2017-12-03T10:18:33.743Z,931.29
2017-12-03T10:19:33.735Z,931.32
2017-12-03T10:20:33.730Z,931.32
2017-12-03T10:21:33.724Z,931.31
2017-12-03T10:22:33.720Z,931.33
2017-12-03T10:23:33.726Z,931.35
2017-12-03T10:24:33.714Z,931.40
2017-12-03T10:25:33.719Z,931.40
2017-12-03T10:26:33.713Z,931.42
2017-12-03T10:27:33.683Z,931.45
2017-12-03T10:28:33.698Z,931.44
2017-12-03T10:29:33.678Z,931.44
2017-12-03T10:30:33.692Z,931.49
2017-12-03T10:31:33.686Z,931.49
2017-12-03T10:32:33.681Z,931.52
2017-12-03T10:33:33.652Z,931.52
2017-12-03T10:34:33.662Z,931.56
2017-12-03T10:35:33.665Z,931.54
2017-12-03T10:36:33.661Z,931.56
2017-12-03T10:37:33.646Z,931.56
2017-12-03T10:38:33.651Z,931.60
2017-12-03T10:39:33.645Z,931.58
2017-12-03T10:40:33.631Z,931.59
2017-12-03T10:41:33.635Z,931.61
2017-12-03T10:42:33.622Z,931.57
2017-12-03T10:43:33.627Z,931.54
2017-12-03T10:44:33.620Z,931.56
2017-12-03T10:45:33.615Z,931.55
2017-12-03T10:46:33.611Z,931.50
2017-12-03T10:47:33.604Z,931.52
2017-12-03T10:48:33.590Z,931.46
2017-12-03T10:49:33.586Z,931.42
2017-12-03T10:50:33.591Z,931.41
2017-12-03T10:51:33.580Z,931.41
2017-12-03T10:52:33.570Z,931.39
2017-12-03T10:53:33.565Z,931.41
2017-12-03T10:54:33.567Z,931.37
2017-12-03T10:55:33.565Z,931.39
2017-12-03T10:56:33.557Z,931.36
2017-12-03T10:57:33.556Z,931.36
2017-12-03T10:58:33.542Z,931.35
2017-12-03T10:59:33.536Z,931.31
2017-12-03T11:00:33.572Z,931.28
2017-12-03T11:01:33.528Z,931.28
2017-12-03T11:02:33.524Z,931.29
2017-12-03T11:03:33.523Z,931.26
2017-12-03T11:04:33.523Z,931.17
2017-12-03T11:05:33.510Z,931.23
2017-12-03T11:06:33.515Z,931.26
2017-12-03T11:07:33.500Z,931.24
2017-12-03T11:08:33.500Z,931.22
2017-12-03T11:09:33.501Z,931.18
2017-12-03T11:10:33.488Z,931.22
2017-12-03T11:11:33.488Z,931.22
2017-12-03T11:12:33.564Z,931.20
2017-12-03T11:13:33.474Z,931.23
2017-12-03T11:14:33.480Z,931.22
2017-12-03T11:15:33.465Z,931.28
2017-12-03T11:16:33.468Z,931.27
2017-12-03T11:17:33.457Z,931.28
2017-12-03T11:18:33.463Z,931.25
2017-12-03T11:19:33.449Z,931.25
2017-12-03T11:20:33.449Z,931.24
2017-12-03T11:21:33.450Z,931.24
2017-12-03T11:22:33.437Z,931.24
2017-12-03T11:23:33.439Z,931.24
2017-12-03T11:24:33.437Z,931.26
2017-12-03T11:25:33.436Z,931.28
2017-12-03T11:26:33.434Z,931.28
2017-12-03T11:27:33.415Z,931.31
2017-12-03T11:28:33.421Z,931.34
2017-12-03T11:29:33.408Z,931.29
2017-12-03T11:30:33.405Z,931.34
2017-12-03T11:31:33.409Z,931.34
2017-12-03T11:32:33.409Z,931.36
2017-12-03T11:33:33.399Z,931.32
2017-12-03T11:34:33.399Z,931.32
2017-12-03T11:35:33.408Z,931.34
2017-12-03T11:36:33.393Z,931.34
2017-12-03T11:37:33.381Z,931.38
2017-12-03T11:38:33.381Z,931.34
2017-12-03T11:39:33.382Z,931.31
2017-12-03T11:40:33.372Z,931.29
2017-12-03T11:41:33.367Z,931.30
2017-12-03T11:42:33.357Z,931.27
2017-12-03T11:43:33.353Z,931.29
2017-12-03T11:44:33.356Z,931.33
2017-12-03T11:45:33.358Z,931.28
2017-12-03T11:46:33.360Z,931.29
2017-12-03T11:47:33.342Z,931.25
2017-12-03T11:48:33.343Z,931.20
2017-12-03T11:49:33.352Z,931.17
2017-12-03T11:50:33.341Z,931.20
2017-12-03T11:51:33.344Z,931.15
2017-12-03T11:52:33.323Z,931.16
2017-12-03T11:53:33.476Z,931.15
2017-12-03T11:54:33.317Z,931.16
2017-12-03T11:55:33.317Z,931.15
2017-12-03T11:56:33.310Z,931.13
2017-12-03T11:57:33.306Z,931.15
2017-12-03T11:58:33.315Z,931.14
2017-12-03T11:59:33.305Z,931.14
2017-12-03T12:00:33.299Z,931.20
2017-12-03T12:01:33.294Z,931.19
2017-12-03T12:02:33.290Z,931.19
2017-12-03T12:03:33.289Z,931.18
2017-12-03T12:04:33.286Z,931.18
2017-12-03T12:05:33.277Z,931.19
2017-12-03T12:06:33.280Z,931.17
2017-12-03T12:07:33.281Z,931.16
2017-12-03T12:08:33.272Z,931.23
2017-12-03T12:09:33.270Z,931.17
2017-12-03T12:10:33.298Z,931.18
2017-12-03T12:11:33.264Z,931.12
2017-12-03T12:12:33.265Z,931.15
2017-12-03T12:13:33.264Z,931.09
2017-12-03T12:14:33.264Z,931.12
2017-12-03T12:15:33.255Z,931.11
2017-12-03T12:16:33.257Z,931.09
2017-12-03T12:17:33.258Z,931.06
2017-12-03T12:18:33.247Z,931.06
2017-12-03T12:19:33.244Z,931.09
2017-12-03T12:20:33.242Z,931.06
2017-12-03T12:21:33.249Z,931.05
2017-12-03T12:22:33.241Z,931.04
2017-12-03T12:23:33.249Z,931.05
2017-12-03T12:24:33.246Z,931.06
2017-12-03T12:25:33.235Z,931.06
2017-12-03T12:26:33.245Z,931.08
2017-12-03T12:27:33.241Z,931.06
2017-12-03T12:28:33.240Z,931.12